createdAt,value
2023-05-21T00:01:54.265Z,12.02
2023-05-21T00:04:22.261Z,12.00
2023-05-21T00:06:51.615Z,11.99
2023-05-21T00:09:19.669Z,12.01
2023-05-21T00:11:47.621Z,11.98
2023-05-21T00:14:15.751Z,12.00
2023-05-21T00:16:45.206Z,11.97
2023-05-21T00:19:13.443Z,11.92
2023-05-21T00:21:41.555Z,11.85
2023-05-21T00:24:09.538Z,11.85
2023-05-21T00:26:38.026Z,11.84
2023-05-21T00:29:06.196Z,11.81
2023-05-21T00:31:34.284Z,11.81
2023-05-21T00:34:03.531Z,11.77
2023-05-21T00:36:31.884Z,11.71
2023-05-21T00:38:59.956Z,11.66
2023-05-21T00:41:30.263Z,11.65
2023-05-21T00:44:00.390Z,11.62
2023-05-21T00:46:31.486Z,11.56
2023-05-21T00:49:00.618Z,11.53
2023-05-21T00:51:30.454Z,11.58
2023-05-21T00:53:59.554Z,11.62
2023-05-21T00:56:27.654Z,11.58
2023-05-21T00:58:57.555Z,11.58
2023-05-21T01:01:34.455Z,11.53
2023-05-21T01:04:03.151Z,11.50
2023-05-21T01:06:34.844Z,11.50
2023-05-21T01:09:05.378Z,11.46
2023-05-21T01:11:46.565Z,11.48
2023-05-21T01:14:17.322Z,11.46
2023-05-21T01:16:49.732Z,11.44
2023-05-21T01:19:20.571Z,11.48
2023-05-21T01:22:04.617Z,11.45
2023-05-21T01:24:32.871Z,11.42
2023-05-21T01:27:05.415Z,11.40
2023-05-21T01:29:34.040Z,11.37
2023-05-21T01:32:21.350Z,11.34
2023-05-21T01:35:13.162Z,11.29
2023-05-21T01:38:13.725Z,11.24
2023-05-21T01:41:03.610Z,11.07
2023-05-21T01:43:34.775Z,11.14
2023-05-21T01:46:03.926Z,11.17
2023-05-21T01:48:36.843Z,11.12
2023-05-21T01:51:06.306Z,11.11
2023-05-21T01:53:34.286Z,11.09
2023-05-21T01:56:02.994Z,11.05
2023-05-21T01:58:31.266Z,11.04
2023-05-21T02:00:59.370Z,11.02
2023-05-21T02:03:31.176Z,10.96
2023-05-21T02:05:59.556Z,10.99
2023-05-21T02:08:28.014Z,11.04
2023-05-21T02:10:56.573Z,11.00
2023-05-21T02:13:26.596Z,10.96
2023-05-21T02:15:56.385Z,10.97
2023-05-21T02:18:26.431Z,10.95
2023-05-21T02:20:54.882Z,10.95
2023-05-21T02:23:22.945Z,10.90
2023-05-21T02:25:50.959Z,10.87
2023-05-21T02:28:19.082Z,10.86
2023-05-21T02:30:47.656Z,10.86
2023-05-21T02:33:16.720Z,10.83
2023-05-21T02:35:45.710Z,10.82
2023-05-21T02:38:14.108Z,10.82
2023-05-21T02:40:42.102Z,10.79
2023-05-21T02:43:10.121Z,10.79
2023-05-21T02:45:38.634Z,10.77
2023-05-21T02:48:07.012Z,10.76
2023-05-21T02:50:37.554Z,10.75
2023-05-21T02:53:06.895Z,10.75
2023-05-21T02:55:35.637Z,10.75
2023-05-21T02:58:04.746Z,10.73
2023-05-21T03:00:32.916Z,10.74
2023-05-21T03:03:01.373Z,10.72
2023-05-21T03:05:29.558Z,10.73
2023-05-21T03:07:57.672Z,10.70
2023-05-21T03:10:25.803Z,10.76
2023-05-21T03:12:54.963Z,10.77
2023-05-21T03:15:24.350Z,10.76
2023-05-21T03:17:54.415Z,10.74
2023-05-21T03:20:24.561Z,10.74
2023-05-21T03:22:52.908Z,10.69
2023-05-21T03:25:21.705Z,10.68
2023-05-21T03:27:50.259Z,10.68
2023-05-21T03:30:38.430Z,10.64
2023-05-21T03:33:25.029Z,10.66
2023-05-21T03:35:52.947Z,10.63
2023-05-21T03:38:21.130Z,10.66
2023-05-21T03:40:49.105Z,10.68
2023-05-21T03:43:17.606Z,10.70
2023-05-21T03:45:46.204Z,10.68
2023-05-21T03:48:43.295Z,10.69
2023-05-21T03:51:13.311Z,10.71
2023-05-21T03:53:41.779Z,10.70
2023-05-21T03:56:09.866Z,10.73
2023-05-21T03:58:38.587Z,10.76
2023-05-21T04:01:08.881Z,10.79
2023-05-21T04:03:40.021Z,10.81
2023-05-21T04:06:10.480Z,10.84
2023-05-21T04:08:39.814Z,10.86
2023-05-21T04:11:07.959Z,10.85
2023-05-21T04:13:36.793Z,10.93
2023-05-21T04:16:09.023Z,11.00
2023-05-21T04:18:37.570Z,11.04
2023-05-21T04:21:06.836Z,11.11
2023-05-21T04:23:36.818Z,11.17
2023-05-21T04:26:07.925Z,11.22
2023-05-21T04:28:36.918Z,11.29
2023-05-21T04:31:05.807Z,11.35
2023-05-21T04:33:35.860Z,11.40
2023-05-21T04:36:04.051Z,11.45
2023-05-21T04:38:32.070Z,11.58
2023-05-21T04:41:03.857Z,11.65
2023-05-21T04:43:32.058Z,11.77
2023-05-21T04:46:01.453Z,11.92
2023-05-21T04:48:29.603Z,11.96
2023-05-21T04:50:57.655Z,12.02
2023-05-21T04:53:26.281Z,12.16
2023-05-21T04:55:54.610Z,12.22
2023-05-21T04:58:22.702Z,12.31
2023-05-21T05:00:52.039Z,12.35
2023-05-21T05:03:20.242Z,12.49
2023-05-21T05:05:48.990Z,12.62
2023-05-21T05:08:17.176Z,12.67
2023-05-21T05:10:45.116Z,12.79
2023-05-21T05:13:13.257Z,12.89
2023-05-21T05:15:41.426Z,13.00
2023-05-21T05:18:09.676Z,13.11
2023-05-21T05:20:38.125Z,13.23
2023-05-21T05:23:06.772Z,13.31
2023-05-21T05:25:35.569Z,13.48
2023-05-21T05:28:04.089Z,13.55
2023-05-21T05:30:32.834Z,13.66
2023-05-21T05:33:10.068Z,13.73
2023-05-21T05:35:38.483Z,13.79
2023-05-21T05:38:09.080Z,13.87
2023-05-21T05:40:37.637Z,14.03
2023-05-21T05:43:06.741Z,14.12
2023-05-21T05:45:35.171Z,14.20
2023-05-21T05:48:04.973Z,14.33
2023-05-21T05:50:33.008Z,14.43
2023-05-21T05:53:01.232Z,14.56
2023-05-21T05:55:30.475Z,14.66
2023-05-21T05:57:58.656Z,14.73
2023-05-21T06:00:28.178Z,14.93
2023-05-21T06:02:57.039Z,15.08
2023-05-21T06:05:25.460Z,15.22
2023-05-21T06:07:53.532Z,15.38
2023-05-21T06:10:21.608Z,15.55
2023-05-21T06:12:49.666Z,15.71
2023-05-21T06:15:19.604Z,15.89
2023-05-21T06:17:47.867Z,16.04
2023-05-21T06:20:16.509Z,16.16
2023-05-21T06:22:44.795Z,16.33
2023-05-21T06:25:14.641Z,16.47
2023-05-21T06:27:42.747Z,16.64
2023-05-21T06:30:16.753Z,16.79
2023-05-21T06:32:46.324Z,16.92
2023-05-21T06:35:14.395Z,17.03
2023-05-21T06:37:43.455Z,17.20
2023-05-21T06:40:12.976Z,17.34
2023-05-21T06:42:41.192Z,17.51
2023-05-21T06:45:32.017Z,17.71
2023-05-21T06:48:02.739Z,17.88
2023-05-21T06:50:30.974Z,17.97
2023-05-21T06:52:59.166Z,18.08
2023-05-21T06:55:28.850Z,18.20
2023-05-21T06:58:35.705Z,18.14
2023-05-21T07:01:04.236Z,18.29
2023-05-21T07:03:33.067Z,18.52
2023-05-21T07:06:01.471Z,18.60
2023-05-21T07:08:30.108Z,18.72
2023-05-21T07:11:02.070Z,18.77
2023-05-21T07:13:32.423Z,18.87
2023-05-21T07:16:00.506Z,19.08
2023-05-21T07:18:29.126Z,19.27
2023-05-21T07:20:57.281Z,19.32
2023-05-21T07:23:25.838Z,19.47
2023-05-21T07:25:54.533Z,19.63
2023-05-21T07:28:23.896Z,19.74
2023-05-21T07:30:52.094Z,19.76
2023-05-21T07:33:24.045Z,19.79
2023-05-21T07:35:53.653Z,19.83
2023-05-21T07:38:21.683Z,19.85
2023-05-21T07:40:49.972Z,19.91
2023-05-21T07:43:19.843Z,20.07
2023-05-21T07:45:48.909Z,20.15
2023-05-21T07:48:18.510Z,20.33
2023-05-21T07:50:58.204Z,20.45
2023-05-21T07:53:26.320Z,20.45
2023-05-21T07:55:55.661Z,20.55
2023-05-21T07:58:26.984Z,20.54
2023-05-21T08:00:57.570Z,20.74
2023-05-21T08:03:28.320Z,20.92
2023-05-21T08:05:56.960Z,21.04
2023-05-21T08:08:25.615Z,21.07
2023-05-21T08:10:55.247Z,21.20
2023-05-21T08:13:23.829Z,21.29
2023-05-21T08:15:53.542Z,21.30
2023-05-21T08:18:25.502Z,21.32
2023-05-21T08:20:55.843Z,21.34
2023-05-21T08:23:25.741Z,21.51
2023-05-21T08:25:55.714Z,21.65
2023-05-21T08:28:23.706Z,21.76
2023-05-21T08:30:54.167Z,21.78
2023-05-21T08:33:23.981Z,21.75
2023-05-21T08:35:52.448Z,21.60
2023-05-21T08:38:31.397Z,21.53
2023-05-21T08:41:27.740Z,21.74
2023-05-21T08:43:59.343Z,21.88
2023-05-21T08:46:34.054Z,22.07
2023-05-21T08:49:03.928Z,21.96
2023-05-21T08:51:33.720Z,21.91
2023-05-21T08:54:04.727Z,22.02
2023-05-21T08:56:34.023Z,22.19
2023-05-21T08:59:03.861Z,22.36
2023-05-21T09:01:46.172Z,22.49
2023-05-21T09:04:23.803Z,22.51
2023-05-21T09:06:58.045Z,22.67
2023-05-21T09:09:55.632Z,22.88
2023-05-21T09:12:27.863Z,22.97
2023-05-21T09:14:58.594Z,23.03
2023-05-21T09:17:31.235Z,23.20
2023-05-21T09:20:12.326Z,23.22
2023-05-21T09:22:47.337Z,23.25
2023-05-21T09:25:17.755Z,23.28
2023-05-21T09:27:46.609Z,23.33
2023-05-21T09:30:18.008Z,23.39
2023-05-21T09:32:54.485Z,23.53
2023-05-21T09:35:22.817Z,23.82
2023-05-21T09:37:53.513Z,23.92
2023-05-21T09:40:24.468Z,24.07
2023-05-21T09:42:54.639Z,24.17
2023-05-21T09:45:26.707Z,24.22
2023-05-21T09:47:56.653Z,24.32
2023-05-21T09:50:28.246Z,24.64
2023-05-21T09:52:56.737Z,25.06
2023-05-21T09:55:27.195Z,25.39
2023-05-21T09:57:55.517Z,25.85
2023-05-21T10:00:28.858Z,25.91
2023-05-21T10:03:09.591Z,26.32
2023-05-21T10:05:38.813Z,26.51
2023-05-21T10:08:09.269Z,26.54
2023-05-21T10:10:40.864Z,26.81
2023-05-21T10:13:14.217Z,26.63
2023-05-21T10:15:44.855Z,26.41
2023-05-21T10:18:14.309Z,26.28
2023-05-21T10:20:43.071Z,26.57
2023-05-21T10:23:14.083Z,26.65
2023-05-21T10:25:42.626Z,26.68
2023-05-21T10:28:11.965Z,26.38
2023-05-21T10:30:40.214Z,26.19
2023-05-21T10:33:08.466Z,26.53
2023-05-21T10:35:39.059Z,26.85
2023-05-21T10:38:12.018Z,26.94
2023-05-21T10:40:40.304Z,27.18
2023-05-21T10:43:46.167Z,27.53
2023-05-21T10:46:29.605Z,27.78
2023-05-21T10:49:13.186Z,28.20
2023-05-21T10:52:19.560Z,27.95
2023-05-21T10:54:53.182Z,27.51
2023-05-21T10:57:53.594Z,27.55
2023-05-21T11:00:22.187Z,27.47
2023-05-21T11:02:53.025Z,27.38
2023-05-21T11:05:41.370Z,27.52
2023-05-21T11:08:23.032Z,27.34
2023-05-21T11:10:57.869Z,27.26
2023-05-21T11:13:27.550Z,27.36
2023-05-21T11:16:01.149Z,27.78
2023-05-21T11:18:35.162Z,27.90
2023-05-21T11:21:07.079Z,28.04
2023-05-21T11:23:55.550Z,28.75
2023-05-21T11:26:26.121Z,28.81
2023-05-21T11:29:09.606Z,28.69
2023-05-21T11:31:38.736Z,28.85
2023-05-21T11:34:39.679Z,29.04
2023-05-21T11:37:31.006Z,29.35
2023-05-21T11:40:17.783Z,30.12
2023-05-21T11:42:51.024Z,30.47
2023-05-21T11:45:21.469Z,29.90
2023-05-21T11:47:50.641Z,29.64
2023-05-21T11:50:19.265Z,29.81
2023-05-21T11:52:49.718Z,29.60
2023-05-21T11:55:22.788Z,29.16
2023-05-21T11:57:54.007Z,28.08
2023-05-21T12:00:22.273Z,27.85
2023-05-21T12:02:52.280Z,27.91
2023-05-21T12:05:20.968Z,27.66
2023-05-21T12:07:50.636Z,27.16
2023-05-21T12:10:33.907Z,26.49
2023-05-21T12:13:02.960Z,26.42
2023-05-21T12:15:32.186Z,26.53
2023-05-21T12:18:01.271Z,26.50
2023-05-21T12:20:29.882Z,26.82
2023-05-21T12:22:59.070Z,26.93
2023-05-21T12:25:28.074Z,27.09
2023-05-21T12:27:58.825Z,27.47
2023-05-21T12:30:28.789Z,28.08
2023-05-21T12:32:58.725Z,28.37
2023-05-21T12:35:26.997Z,29.20
2023-05-21T12:37:55.099Z,29.83
2023-05-21T12:40:37.176Z,29.98
2023-05-21T12:43:06.270Z,29.68
2023-05-21T12:45:34.679Z,30.01
2023-05-21T12:48:14.522Z,29.90
2023-05-21T12:50:43.358Z,29.59
2023-05-21T12:53:12.260Z,30.07
2023-05-21T12:55:40.782Z,30.63
2023-05-21T12:58:14.111Z,30.81
2023-05-21T13:00:44.993Z,30.61
2023-05-21T13:03:14.315Z,30.22
2023-05-21T13:05:43.029Z,29.79
2023-05-21T13:08:14.170Z,30.30
2023-05-21T13:10:42.255Z,31.09
2023-05-21T13:13:10.371Z,31.60
2023-05-21T13:15:38.536Z,31.18
2023-05-21T13:18:06.690Z,30.81
2023-05-21T13:20:36.819Z,31.14
2023-05-21T13:23:06.331Z,30.78
2023-05-21T13:25:35.858Z,30.16
2023-05-21T13:28:05.239Z,30.09
2023-05-21T13:30:36.527Z,30.13
2023-05-21T13:33:09.054Z,30.53
2023-05-21T13:35:37.998Z,30.62
2023-05-21T13:38:06.268Z,30.78
2023-05-21T13:40:37.438Z,31.51
2023-05-21T13:43:08.162Z,32.22
2023-05-21T13:45:36.282Z,32.15
2023-05-21T13:48:05.602Z,31.89
2023-05-21T13:50:33.708Z,32.53
2023-05-21T13:53:03.333Z,32.52
2023-05-21T13:55:31.368Z,32.21
2023-05-21T13:57:59.406Z,31.73
2023-05-21T14:00:27.632Z,32.14
2023-05-21T14:02:56.029Z,32.59
2023-05-21T14:05:26.463Z,32.63
2023-05-21T14:07:54.676Z,32.09
2023-05-21T14:10:23.294Z,32.32
2023-05-21T14:12:51.763Z,32.81
2023-05-21T14:15:19.879Z,32.38
2023-05-21T14:17:47.908Z,33.11
2023-05-21T14:20:16.002Z,33.26
2023-05-21T14:22:44.112Z,33.07
2023-05-21T14:25:12.257Z,33.00
2023-05-21T14:27:40.525Z,32.95
2023-05-21T14:30:09.730Z,32.64
2023-05-21T14:32:37.986Z,32.12
2023-05-21T14:35:06.595Z,31.20
2023-05-21T14:37:34.734Z,30.85
2023-05-21T14:40:06.161Z,30.68
2023-05-21T14:42:35.364Z,30.81
2023-05-21T14:45:18.150Z,31.11
2023-05-21T14:47:47.988Z,31.20
2023-05-21T14:50:18.587Z,31.34
2023-05-21T14:52:47.350Z,31.38
2023-05-21T14:55:16.979Z,31.67
2023-05-21T14:57:45.507Z,32.01
2023-05-21T15:00:16.438Z,32.54
2023-05-21T15:02:44.629Z,33.74
2023-05-21T15:05:13.090Z,33.17
2023-05-21T15:07:41.326Z,32.78
2023-05-21T15:10:10.582Z,30.96
2023-05-21T15:12:39.857Z,29.26
2023-05-21T15:15:08.866Z,27.55
2023-05-21T15:17:37.123Z,26.08
2023-05-21T15:20:06.575Z,25.03
2023-05-21T15:22:34.811Z,24.04
2023-05-21T15:25:07.065Z,24.15
2023-05-21T15:27:35.356Z,23.60
2023-05-21T15:30:04.237Z,22.59
2023-05-21T15:32:32.630Z,21.58
2023-05-21T15:35:01.591Z,20.90
2023-05-21T15:37:32.536Z,20.62
2023-05-21T15:40:01.651Z,20.34
2023-05-21T15:42:31.968Z,20.14
2023-05-21T15:45:00.986Z,19.99
2023-05-21T15:47:29.365Z,19.79
2023-05-21T15:49:58.917Z,19.47
2023-05-21T15:52:27.168Z,19.36
2023-05-21T15:54:56.049Z,19.24
2023-05-21T15:57:24.071Z,19.20
2023-05-21T15:59:52.785Z,19.24
2023-05-21T16:02:21.709Z,19.42
2023-05-21T16:04:51.969Z,20.19
2023-05-21T16:07:21.532Z,20.67
2023-05-21T16:09:49.795Z,20.62
2023-05-21T16:12:18.579Z,20.39
2023-05-21T16:14:50.190Z,20.22
2023-05-21T16:17:19.936Z,20.20
2023-05-21T16:19:48.028Z,20.26
2023-05-21T16:22:17.231Z,20.40
2023-05-21T16:24:45.503Z,20.39
2023-05-21T16:27:13.790Z,20.32
2023-05-21T16:29:42.225Z,20.24
2023-05-21T16:32:10.832Z,20.15
2023-05-21T16:34:38.877Z,20.06
2023-05-21T16:37:10.280Z,20.09
2023-05-21T16:39:38.745Z,20.70
2023-05-21T16:42:07.104Z,21.47
2023-05-21T16:44:37.029Z,21.95
2023-05-21T16:47:05.481Z,21.89
2023-05-21T16:49:33.837Z,21.79
2023-05-21T16:52:02.220Z,21.85
2023-05-21T16:54:33.624Z,22.13
2023-05-21T16:57:01.836Z,22.46
2023-05-21T16:59:30.206Z,22.66
2023-05-21T17:01:58.456Z,23.05
2023-05-21T17:04:26.880Z,23.45
2023-05-21T17:06:55.639Z,23.54
2023-05-21T17:09:23.780Z,23.59
2023-05-21T17:11:51.957Z,23.61
2023-05-21T17:14:33.210Z,23.67
2023-05-21T17:17:07.822Z,23.49
2023-05-21T17:19:36.011Z,23.28
2023-05-21T17:22:04.217Z,22.83
2023-05-21T17:24:32.226Z,22.40
2023-05-21T17:27:01.333Z,21.96
2023-05-21T17:29:29.967Z,21.38
2023-05-21T17:31:59.957Z,20.95
2023-05-21T17:34:31.515Z,20.57
2023-05-21T17:37:01.934Z,20.26
2023-05-21T17:39:30.140Z,20.11
2023-05-21T17:41:59.128Z,19.83
2023-05-21T17:44:27.211Z,19.63
2023-05-21T17:46:56.792Z,19.53
2023-05-21T17:49:25.276Z,19.42
2023-05-21T17:51:57.065Z,19.29
2023-05-21T17:54:25.414Z,19.17
2023-05-21T17:56:53.577Z,19.05
2023-05-21T17:59:22.065Z,18.94
2023-05-21T18:01:50.172Z,18.80
2023-05-21T18:04:18.606Z,18.67
2023-05-21T18:06:46.885Z,18.56
2023-05-21T18:09:15.544Z,18.42
2023-05-21T18:11:45.660Z,18.32
2023-05-21T18:14:13.756Z,18.14
2023-05-21T18:16:41.976Z,18.03
2023-05-21T18:19:10.162Z,17.89
2023-05-21T18:21:38.518Z,17.76
2023-05-21T18:24:07.018Z,17.66
2023-05-21T18:26:35.137Z,17.57
2023-05-21T18:29:03.534Z,17.47
2023-05-21T18:31:31.852Z,17.38
2023-05-21T18:34:00.311Z,17.30
2023-05-21T18:36:28.573Z,17.24
2023-05-21T18:38:57.806Z,17.18
2023-05-21T18:41:26.466Z,17.10
2023-05-21T18:43:54.406Z,17.03
2023-05-21T18:46:22.698Z,16.95
2023-05-21T18:48:50.873Z,16.89
2023-05-21T18:51:19.118Z,16.85
2023-05-21T18:53:48.036Z,16.78
2023-05-21T18:56:16.108Z,16.72
2023-05-21T18:58:44.135Z,16.67
2023-05-21T19:01:12.243Z,16.62
2023-05-21T19:03:45.660Z,16.57
2023-05-21T19:06:13.723Z,16.52
2023-05-21T19:08:42.063Z,16.48
2023-05-21T19:11:12.136Z,16.43
2023-05-21T19:13:40.709Z,16.36
2023-05-21T19:16:11.183Z,16.30
2023-05-21T19:18:42.824Z,16.26
2023-05-21T19:21:14.537Z,16.21
2023-05-21T19:23:52.631Z,16.17
2023-05-21T19:26:22.886Z,16.14
2023-05-21T19:28:53.838Z,16.09
2023-05-21T19:31:22.989Z,16.05
2023-05-21T19:33:51.817Z,16.03
2023-05-21T19:36:21.304Z,16.01
2023-05-21T19:38:51.016Z,15.98
2023-05-21T19:41:20.136Z,15.97
2023-05-21T19:43:48.609Z,15.98
2023-05-21T19:46:19.264Z,16.01
2023-05-21T19:48:49.489Z,16.03
2023-05-21T19:51:17.913Z,16.07
2023-05-21T19:53:45.904Z,16.12
2023-05-21T19:56:14.258Z,16.17
2023-05-21T19:58:47.097Z,16.22
2023-05-21T20:01:17.974Z,16.27
2023-05-21T20:03:47.734Z,16.29
2023-05-21T20:06:18.809Z,16.29
2023-05-21T20:08:47.552Z,16.28
2023-05-21T20:11:15.938Z,16.26
2023-05-21T20:13:48.552Z,16.28
2023-05-21T20:16:18.624Z,16.25
2023-05-21T20:18:50.333Z,16.18
2023-05-21T20:21:18.781Z,16.09
2023-05-21T20:23:47.965Z,16.02
2023-05-21T20:26:17.079Z,15.97
2023-05-21T20:28:46.176Z,15.90
2023-05-21T20:31:14.744Z,15.86
2023-05-21T20:33:43.148Z,15.82
2023-05-21T20:36:13.479Z,15.77
2023-05-21T20:38:45.798Z,15.72
2023-05-21T20:41:14.304Z,15.67
2023-05-21T20:43:45.475Z,15.59
2023-05-21T20:46:13.699Z,15.54
2023-05-21T20:48:41.924Z,15.49
2023-05-21T20:51:09.988Z,15.45
2023-05-21T20:53:38.490Z,15.45
2023-05-21T20:56:10.324Z,15.43
2023-05-21T20:58:39.950Z,15.42
2023-05-21T21:01:08.046Z,15.39
2023-05-21T21:03:37.077Z,15.34
2023-05-21T21:06:06.676Z,15.32
2023-05-21T21:08:34.986Z,15.29
2023-05-21T21:11:03.069Z,15.23
2023-05-21T21:13:31.225Z,15.12
2023-05-21T21:16:00.365Z,15.11
2023-05-21T21:18:28.402Z,15.08
2023-05-21T21:20:57.160Z,15.05
2023-05-21T21:23:30.022Z,15.03
2023-05-21T21:25:58.288Z,15.02
2023-05-21T21:28:26.368Z,15.01
2023-05-21T21:30:54.806Z,14.98
2023-05-21T21:33:24.463Z,14.96
2023-05-21T21:35:52.573Z,14.95
2023-05-21T21:38:21.073Z,14.94
2023-05-21T21:40:51.910Z,14.91
2023-05-21T21:43:20.853Z,14.83
2023-05-21T21:45:50.678Z,14.81
2023-05-21T21:48:19.074Z,14.76
2023-05-21T21:50:47.188Z,14.72
2023-05-21T21:53:15.294Z,14.65
2023-05-21T21:55:43.349Z,14.62
2023-05-21T21:58:11.665Z,14.59
2023-05-21T22:00:40.226Z,14.55
2023-05-21T22:03:08.519Z,14.50
2023-05-21T22:05:37.002Z,14.46
2023-05-21T22:08:05.574Z,14.44
2023-05-21T22:10:38.138Z,14.43
2023-05-21T22:13:06.685Z,14.42
2023-05-21T22:15:35.117Z,14.42
2023-05-21T22:18:03.253Z,14.42
2023-05-21T22:20:33.150Z,14.42
2023-05-21T22:23:01.842Z,14.41
2023-05-21T22:25:30.192Z,14.38
2023-05-21T22:27:58.289Z,14.33
2023-05-21T22:30:26.285Z,14.29
2023-05-21T22:32:54.375Z,14.22
2023-05-21T22:35:22.628Z,14.13
2023-05-21T22:37:51.235Z,14.07
2023-05-21T22:40:19.304Z,14.00
2023-05-21T22:42:47.518Z,13.93
2023-05-21T22:45:16.298Z,13.86
2023-05-21T22:47:44.336Z,13.82
2023-05-21T22:50:12.934Z,13.78
2023-05-21T22:52:41.955Z,13.75
2023-05-21T22:55:11.636Z,13.73
2023-05-21T22:57:40.019Z,13.71
2023-05-21T23:00:09.755Z,13.68
2023-05-21T23:02:39.487Z,13.66
2023-05-21T23:05:07.914Z,13.66
2023-05-21T23:07:35.954Z,13.64
2023-05-21T23:10:04.571Z,13.62
2023-05-21T23:12:32.964Z,13.62
2023-05-21T23:15:03.064Z,13.62
2023-05-21T23:17:31.038Z,13.61
2023-05-21T23:19:59.524Z,13.59
2023-05-21T23:22:27.512Z,13.57
2023-05-21T23:24:55.624Z,13.56
2023-05-21T23:27:24.064Z,13.54
2023-05-21T23:29:52.273Z,13.52
2023-05-21T23:32:20.297Z,13.52
2023-05-21T23:34:48.430Z,13.51
2023-05-21T23:37:16.825Z,13.49
2023-05-21T23:39:49.472Z,13.40
2023-05-21T23:42:17.837Z,13.35
2023-05-21T23:44:46.361Z,13.29
2023-05-21T23:47:14.328Z,13.21
2023-05-21T23:49:42.575Z,13.13
2023-05-21T23:52:13.085Z,13.07
2023-05-21T23:54:41.635Z,13.02
2023-05-21T23:57:10.952Z,13.00
2023-05-21T23:59:39.233Z,12.95
